createdAt,value
2018-02-08T00:00:02.959Z,3.38
2018-02-08T00:02:30.430Z,3.39
2018-02-08T00:04:57.921Z,3.39
2018-02-08T00:07:25.414Z,3.40
2018-02-08T00:09:52.906Z,3.41
2018-02-08T00:12:20.395Z,3.42
2018-02-08T00:14:47.870Z,3.41
2018-02-08T00:17:15.379Z,3.42
2018-02-08T00:19:42.859Z,3.43
2018-02-08T00:22:10.357Z,3.44
2018-02-08T00:24:37.851Z,3.43
2018-02-08T00:27:05.339Z,3.44
2018-02-08T00:29:32.831Z,3.44
2018-02-08T00:32:00.327Z,3.44
2018-02-08T00:34:27.838Z,3.43
2018-02-08T00:36:55.309Z,3.43
2018-02-08T00:39:22.804Z,3.43
2018-02-08T00:41:50.241Z,3.43
2018-02-08T00:44:17.750Z,3.43
2018-02-08T00:46:45.263Z,3.43
2018-02-08T00:49:12.751Z,3.44
2018-02-08T00:51:40.252Z,3.45
2018-02-08T00:54:07.732Z,3.45
2018-02-08T00:56:35.214Z,3.46
2018-02-08T00:59:02.699Z,3.46
2018-02-08T01:01:30.203Z,3.46
2018-02-08T01:03:57.678Z,3.48
2018-02-08T01:06:25.162Z,3.48
2018-02-08T01:08:52.668Z,3.48
2018-02-08T01:11:20.152Z,3.49
2018-02-08T01:13:47.639Z,3.50
2018-02-08T01:16:15.120Z,3.51
2018-02-08T01:18:42.596Z,3.51
2018-02-08T01:21:10.090Z,3.52
2018-02-08T01:23:37.583Z,3.53
2018-02-08T01:26:05.086Z,3.54
2018-02-08T01:28:32.586Z,3.54
2018-02-08T01:31:00.080Z,3.55
2018-02-08T01:33:27.569Z,3.56
2018-02-08T01:35:55.052Z,3.57
2018-02-08T01:38:22.522Z,3.58
2018-02-08T01:40:50.012Z,3.60
2018-02-08T01:43:17.515Z,3.61
2018-02-08T01:45:45.023Z,3.63
2018-02-08T01:48:12.518Z,3.64
2018-02-08T01:50:40.031Z,3.65
2018-02-08T01:53:07.503Z,3.67
2018-02-08T01:55:34.984Z,3.68
2018-02-08T01:58:02.460Z,3.68
2018-02-08T02:00:29.964Z,3.69
2018-02-08T02:02:57.488Z,3.70
2018-02-08T02:05:24.954Z,3.70
2018-02-08T02:07:52.438Z,3.71
2018-02-08T02:10:19.925Z,3.71
2018-02-08T02:12:47.410Z,3.72
2018-02-08T02:15:14.890Z,3.72
2018-02-08T02:17:42.386Z,3.73
2018-02-08T02:20:09.870Z,3.74
2018-02-08T02:22:37.382Z,3.74
2018-02-08T02:25:04.865Z,3.75
2018-02-08T02:27:32.343Z,3.74
2018-02-08T02:29:59.827Z,3.75
2018-02-08T02:32:27.298Z,3.76
2018-02-08T02:34:54.824Z,3.77
2018-02-08T02:37:22.311Z,3.78
2018-02-08T02:39:49.801Z,3.79
2018-02-08T02:42:17.294Z,3.80
2018-02-08T02:44:50.651Z,3.80
2018-02-08T02:47:18.148Z,3.82
2018-02-08T02:49:45.637Z,3.83
2018-02-08T02:52:13.108Z,3.84
2018-02-08T02:54:40.618Z,3.84
2018-02-08T02:57:08.112Z,3.85
2018-02-08T02:59:35.629Z,3.86
2018-02-08T03:02:03.135Z,3.87
2018-02-08T03:04:30.614Z,3.87
2018-02-08T03:06:58.110Z,3.88
2018-02-08T03:09:25.598Z,3.88
2018-02-08T03:11:53.080Z,3.87
2018-02-08T03:14:20.564Z,3.87
2018-02-08T03:16:48.048Z,3.87
2018-02-08T03:21:52.514Z,3.87
2018-02-08T03:24:19.990Z,3.87
2018-02-08T03:26:47.487Z,3.87
2018-02-08T03:29:14.983Z,3.87
2018-02-08T03:31:42.476Z,3.87
2018-02-08T03:34:09.968Z,3.88
2018-02-08T03:36:37.446Z,3.88
2018-02-08T03:39:04.940Z,3.88
2018-02-08T03:41:32.420Z,3.88
2018-02-08T03:43:59.971Z,3.88
2018-02-08T03:46:27.454Z,3.89
2018-02-08T03:48:54.950Z,3.89
2018-02-08T03:51:22.457Z,3.89
2018-02-08T03:53:49.936Z,3.89
2018-02-08T03:56:17.423Z,3.90
2018-02-08T03:58:44.911Z,3.91
2018-02-08T04:01:12.341Z,3.93
2018-02-08T04:03:39.840Z,3.94
2018-02-08T04:06:07.329Z,3.95
2018-02-08T04:08:34.798Z,3.95
2018-02-08T04:11:02.283Z,3.96
2018-02-08T04:13:29.790Z,3.97
2018-02-08T04:15:57.279Z,3.97
2018-02-08T04:18:24.771Z,3.97
2018-02-08T04:20:52.266Z,3.98
2018-02-08T04:23:19.755Z,3.98
2018-02-08T04:25:47.255Z,3.98
2018-02-08T04:28:14.740Z,3.98
2018-02-08T04:30:42.222Z,3.98
2018-02-08T04:33:09.722Z,3.98
2018-02-08T04:35:37.198Z,3.99
2018-02-08T04:38:04.676Z,3.99
2018-02-08T04:40:43.927Z,3.99
2018-02-08T04:43:22.954Z,3.99
2018-02-08T04:46:02.068Z,4.00
2018-02-08T04:48:29.551Z,4.00
2018-02-08T04:50:57.045Z,4.00
2018-02-08T04:53:24.538Z,4.01
2018-02-08T04:55:52.030Z,4.01
2018-02-08T04:58:19.525Z,4.01
2018-02-08T05:00:47.010Z,4.02
2018-02-08T05:03:14.498Z,4.03
2018-02-08T05:05:41.982Z,4.03
2018-02-08T05:08:09.417Z,4.04
2018-02-08T05:10:36.933Z,4.05
2018-02-08T05:13:04.403Z,4.06
2018-02-08T05:15:31.886Z,4.07
2018-02-08T05:17:59.367Z,4.08
2018-02-08T05:20:26.858Z,4.09
2018-02-08T05:22:54.356Z,4.10
2018-02-08T05:25:21.830Z,4.11
2018-02-08T05:27:49.315Z,4.13
2018-02-08T05:30:16.804Z,4.14
2018-02-08T05:32:44.279Z,4.15
2018-02-08T05:35:11.786Z,4.18
2018-02-08T05:37:39.276Z,4.20
2018-02-08T05:40:06.772Z,4.21
2018-02-08T05:42:34.264Z,4.23
2018-02-08T05:45:01.747Z,4.25
2018-02-08T05:47:29.218Z,4.26
2018-02-08T05:49:56.699Z,4.27
2018-02-08T05:52:24.173Z,4.29
2018-02-08T05:54:51.678Z,4.30
2018-02-08T05:57:19.159Z,4.31
2018-02-08T05:59:46.628Z,4.33
2018-02-08T06:02:14.118Z,4.34
2018-02-08T06:04:41.583Z,4.35
2018-02-08T06:07:09.098Z,4.37
2018-02-08T06:09:36.576Z,4.37
2018-02-08T06:12:04.054Z,4.38
2018-02-08T06:14:31.534Z,4.39
2018-02-08T06:16:59.034Z,4.40
2018-02-08T06:19:26.511Z,4.42
2018-02-08T06:21:53.983Z,4.42
2018-02-08T06:24:21.466Z,4.44
2018-02-08T06:26:48.931Z,4.45
2018-02-08T06:29:16.416Z,4.46
2018-02-08T06:31:43.911Z,4.47
2018-02-08T06:34:11.370Z,4.49
2018-02-08T06:36:38.862Z,4.51
2018-02-08T06:39:06.347Z,4.52
2018-02-08T06:41:33.819Z,4.53
2018-02-08T06:44:01.313Z,4.54
2018-02-08T06:46:28.830Z,4.55
2018-02-08T06:48:56.305Z,4.57
2018-02-08T06:51:23.770Z,4.59
2018-02-08T06:53:51.264Z,4.61
2018-02-08T06:56:18.750Z,4.62
2018-02-08T06:58:46.237Z,4.63
2018-02-08T07:01:13.710Z,4.65
2018-02-08T07:03:41.193Z,4.66
2018-02-08T07:06:08.680Z,4.68
2018-02-08T07:08:36.165Z,4.70
2018-02-08T07:11:03.634Z,4.70
2018-02-08T07:13:31.121Z,4.72
2018-02-08T07:15:58.619Z,4.73
2018-02-08T07:18:26.108Z,4.75
2018-02-08T07:20:53.607Z,4.76
2018-02-08T07:23:21.114Z,4.79
2018-02-08T07:25:48.602Z,4.80
2018-02-08T07:28:16.101Z,4.81
2018-02-08T07:30:43.583Z,4.83
2018-02-08T07:33:11.082Z,4.83
2018-02-08T07:35:38.546Z,4.85
2018-02-08T07:38:06.055Z,4.86
2018-02-08T07:40:33.528Z,4.87
2018-02-08T07:43:00.991Z,4.88
2018-02-08T07:45:28.484Z,4.90
2018-02-08T07:47:55.973Z,4.92
2018-02-08T07:50:23.455Z,4.93
2018-02-08T07:52:50.952Z,4.95
2018-02-08T07:55:18.494Z,4.98
2018-02-08T07:57:45.984Z,5.01
2018-02-08T08:00:13.471Z,5.04
2018-02-08T08:02:40.964Z,5.05
2018-02-08T08:05:08.466Z,5.08
2018-02-08T08:07:35.954Z,5.10
2018-02-08T08:10:03.426Z,5.13
2018-02-08T08:12:30.903Z,5.15
2018-02-08T08:14:58.382Z,5.17
2018-02-08T08:17:25.863Z,5.19
2018-02-08T08:19:53.348Z,5.21
2018-02-08T08:22:20.815Z,5.23
2018-02-08T08:24:48.312Z,5.25
2018-02-08T08:27:15.790Z,5.28
2018-02-08T08:29:43.279Z,5.31
2018-02-08T08:32:10.798Z,5.34
2018-02-08T08:34:38.269Z,5.37
2018-02-08T08:37:05.761Z,5.40
2018-02-08T08:39:33.233Z,5.44
2018-02-08T08:42:00.724Z,5.48
2018-02-08T08:44:28.204Z,5.52
2018-02-08T08:46:55.678Z,5.56
2018-02-08T08:49:23.153Z,5.60
2018-02-08T08:51:50.634Z,5.64
2018-02-08T08:54:18.128Z,5.67
2018-02-08T08:56:45.599Z,5.71
2018-02-08T08:59:13.114Z,5.76
2018-02-08T09:01:40.563Z,5.82
2018-02-08T09:04:08.095Z,5.85
2018-02-08T09:06:35.590Z,5.89
2018-02-08T09:09:03.074Z,5.94
2018-02-08T09:11:30.545Z,5.98
2018-02-08T09:13:58.027Z,6.03
2018-02-08T09:16:25.507Z,6.09
2018-02-08T09:18:53.002Z,6.14
2018-02-08T09:21:20.493Z,6.20
2018-02-08T09:23:47.983Z,6.25
2018-02-08T09:26:15.470Z,6.31
2018-02-08T09:28:42.925Z,6.36
2018-02-08T09:31:10.417Z,6.43
2018-02-08T09:33:37.897Z,6.50
2018-02-08T09:36:05.384Z,6.55
2018-02-08T09:38:32.874Z,6.60
2018-02-08T09:41:00.359Z,6.65
2018-02-08T09:43:27.847Z,6.70
2018-02-08T09:45:55.350Z,6.74
2018-02-08T09:48:22.862Z,6.79
2018-02-08T09:50:50.334Z,6.85
2018-02-08T09:53:17.829Z,6.88
2018-02-08T09:55:45.350Z,6.92
2018-02-08T09:58:12.824Z,6.98
2018-02-08T10:00:40.324Z,7.03
2018-02-08T10:03:07.814Z,7.08
2018-02-08T10:05:35.297Z,7.14
2018-02-08T10:08:02.781Z,7.17
2018-02-08T10:10:30.273Z,7.20
2018-02-08T10:12:57.765Z,7.25
2018-02-08T10:15:25.258Z,7.29
2018-02-08T10:17:52.746Z,7.34
2018-02-08T10:20:20.230Z,7.37
2018-02-08T10:22:47.744Z,7.41
2018-02-08T10:25:15.210Z,7.45
2018-02-08T10:27:42.690Z,7.48
2018-02-08T10:30:10.188Z,7.52
2018-02-08T10:32:37.670Z,7.56
2018-02-08T10:35:05.170Z,7.58
2018-02-08T10:37:32.651Z,7.61
2018-02-08T10:40:00.146Z,7.63
2018-02-08T10:42:27.656Z,7.66
2018-02-08T10:44:55.135Z,7.68
2018-02-08T10:47:22.641Z,7.67
2018-02-08T10:49:50.152Z,7.68
2018-02-08T10:52:17.722Z,7.67
2018-02-08T10:54:45.172Z,7.67
2018-02-08T10:57:12.662Z,7.67
2018-02-08T10:59:40.163Z,7.68
2018-02-08T11:02:07.675Z,7.68
2018-02-08T11:04:35.162Z,7.70
2018-02-08T11:07:02.655Z,7.72
2018-02-08T11:09:30.142Z,7.75
2018-02-08T11:11:57.606Z,7.78
2018-02-08T11:14:25.115Z,7.82
2018-02-08T11:16:52.598Z,7.84
2018-02-08T11:19:20.083Z,7.88
2018-02-08T11:21:47.563Z,7.89
2018-02-08T11:24:15.052Z,7.92
2018-02-08T11:26:42.539Z,7.95
2018-02-08T11:29:10.021Z,7.98
2018-02-08T11:31:37.470Z,8.01
2018-02-08T11:34:04.986Z,8.04
2018-02-08T11:36:32.481Z,8.08
2018-02-08T11:38:59.961Z,8.13
2018-02-08T11:41:27.463Z,8.17
2018-02-08T11:43:54.930Z,8.21
2018-02-08T11:46:22.410Z,8.26
2018-02-08T11:48:49.903Z,8.29
2018-02-08T11:51:17.384Z,8.32
2018-02-08T11:53:44.882Z,8.35
2018-02-08T11:56:12.370Z,8.37
2018-02-08T11:58:39.841Z,8.38
2018-02-08T12:01:07.371Z,8.38
2018-02-08T12:03:34.886Z,8.39
2018-02-08T12:06:02.374Z,8.41
2018-02-08T12:08:29.875Z,8.45
2018-02-08T12:10:57.356Z,8.48
2018-02-08T12:13:24.842Z,8.52
2018-02-08T12:15:52.322Z,8.57
2018-02-08T12:18:19.822Z,8.61
2018-02-08T12:20:47.282Z,8.66
2018-02-08T12:23:14.817Z,8.70
2018-02-08T12:25:42.636Z,8.74
2018-02-08T12:28:10.146Z,8.77
2018-02-08T12:30:38.142Z,8.79
2018-02-08T12:33:05.760Z,8.81
2018-02-08T12:35:33.235Z,8.82
2018-02-08T12:38:00.739Z,8.83
2018-02-08T12:40:28.226Z,8.86
2018-02-08T12:42:55.694Z,8.87
2018-02-08T12:45:23.984Z,8.89
2018-02-08T12:47:51.486Z,8.90
2018-02-08T12:50:18.994Z,8.91
2018-02-08T12:52:46.523Z,8.92
2018-02-08T12:55:14.019Z,8.94
2018-02-08T12:57:41.521Z,8.95
2018-02-08T13:00:09.034Z,8.96
2018-02-08T13:02:36.542Z,8.97
2018-02-08T13:05:04.126Z,8.99
2018-02-08T13:07:31.657Z,9.03
2018-02-08T13:09:59.245Z,9.05
2018-02-08T13:12:26.818Z,9.07
2018-02-08T13:14:54.350Z,9.09
2018-02-08T13:17:21.874Z,9.10
2018-02-08T13:19:49.396Z,9.11
2018-02-08T13:22:16.916Z,9.12
2018-02-08T13:24:44.406Z,9.14
2018-02-08T13:27:11.982Z,9.17
2018-02-08T13:29:39.523Z,9.20
2018-02-08T13:32:07.794Z,9.22
2018-02-08T13:34:35.294Z,9.24
2018-02-08T13:37:02.817Z,9.26
2018-02-08T13:42:37.370Z,9.30
2018-02-08T13:45:04.875Z,9.33
2018-02-08T13:47:32.396Z,9.36
2018-02-08T13:53:10.284Z,9.41
2018-02-08T13:55:43.421Z,9.41
2018-02-08T14:01:24.706Z,9.41
2018-02-08T14:03:52.233Z,9.42
2018-02-08T14:06:19.715Z,9.45
2018-02-08T14:08:47.269Z,9.45
2018-02-08T14:11:14.731Z,9.46
2018-02-08T14:13:42.230Z,9.48
2018-02-08T14:16:09.730Z,9.49
2018-02-08T14:18:37.210Z,9.50
2018-02-08T14:21:04.697Z,9.50
2018-02-08T14:23:32.226Z,9.48
2018-02-08T14:25:59.695Z,9.48
2018-02-08T14:28:27.212Z,9.49
2018-02-08T14:30:54.698Z,9.48
2018-02-08T14:33:22.175Z,9.48
2018-02-08T14:35:49.673Z,9.47
2018-02-08T14:38:17.168Z,9.45
2018-02-08T14:40:44.691Z,9.44
2018-02-08T14:43:12.204Z,9.42
2018-02-08T14:45:39.679Z,9.41
2018-02-08T14:48:07.189Z,9.40
2018-02-08T14:50:34.663Z,9.38
2018-02-08T14:53:02.149Z,9.36
2018-02-08T14:55:29.642Z,9.36
2018-02-08T14:57:57.199Z,9.35
2018-02-08T15:00:24.687Z,9.35
2018-02-08T15:02:52.160Z,9.35
2018-02-08T15:05:19.679Z,9.34
2018-02-08T15:07:47.203Z,9.34
2018-02-08T15:10:14.725Z,9.33
2018-02-08T15:12:42.197Z,9.33
2018-02-08T15:15:09.679Z,9.33
2018-02-08T15:17:37.175Z,9.32
2018-02-08T15:20:04.667Z,9.31
2018-02-08T15:22:32.151Z,9.31
2018-02-08T15:24:59.661Z,9.32
2018-02-08T15:27:27.126Z,9.31
2018-02-08T15:29:54.616Z,9.31
2018-02-08T15:32:22.110Z,9.31
2018-02-08T15:34:49.606Z,9.31
2018-02-08T15:37:17.091Z,9.29
2018-02-08T15:39:44.596Z,9.27
2018-02-08T15:42:12.086Z,9.25
2018-02-08T15:44:39.591Z,9.23
2018-02-08T15:47:07.075Z,9.21
2018-02-08T15:49:34.554Z,9.20
2018-02-08T15:52:02.055Z,9.18
2018-02-08T15:54:29.543Z,9.17
2018-02-08T15:56:57.031Z,9.15
2018-02-08T15:59:24.540Z,9.14
2018-02-08T16:01:52.015Z,9.12
2018-02-08T16:04:19.507Z,9.10
2018-02-08T16:06:46.990Z,9.09
2018-02-08T16:09:14.480Z,9.08
2018-02-08T16:11:41.970Z,9.07
2018-02-08T16:14:09.459Z,9.07
2018-02-08T16:16:36.944Z,9.07
2018-02-08T16:19:04.459Z,9.07
2018-02-08T16:21:31.943Z,9.06
2018-02-08T16:23:59.448Z,9.06
2018-02-08T16:26:26.979Z,9.07
2018-02-08T16:28:54.482Z,9.09
2018-02-08T16:31:21.979Z,9.08
2018-02-08T16:33:49.470Z,9.08
2018-02-08T16:36:16.960Z,9.07
2018-02-08T16:38:44.451Z,9.07
2018-02-08T16:41:12.067Z,9.06
2018-02-08T16:43:39.573Z,9.05
2018-02-08T16:46:07.116Z,9.03
2018-02-08T16:48:34.616Z,9.00
2018-02-08T16:51:02.271Z,8.97
2018-02-08T16:53:29.768Z,8.95
2018-02-08T16:55:57.258Z,8.93
2018-02-08T16:58:24.759Z,8.92
2018-02-08T17:00:52.245Z,8.90
2018-02-08T17:03:19.757Z,8.89
2018-02-08T17:05:47.248Z,8.88
2018-02-08T17:08:14.749Z,8.86
2018-02-08T17:10:42.243Z,8.84
2018-02-08T17:13:09.742Z,8.82
2018-02-08T17:15:37.233Z,8.81
2018-02-08T17:18:04.740Z,8.79
2018-02-08T17:20:32.218Z,8.78
2018-02-08T17:22:59.731Z,8.77
2018-02-08T17:25:27.251Z,8.75
2018-02-08T17:27:54.747Z,8.74
2018-02-08T17:30:22.272Z,8.73
2018-02-08T17:32:49.807Z,8.72
2018-02-08T17:35:17.364Z,8.73
2018-02-08T17:37:44.933Z,8.72
2018-02-08T17:40:12.443Z,8.72
2018-02-08T17:42:40.001Z,8.72
2018-02-08T17:45:07.499Z,8.73
2018-02-08T17:47:34.989Z,8.72
2018-02-08T17:50:02.479Z,8.72
2018-02-08T17:52:29.974Z,8.71
2018-02-08T17:54:57.492Z,8.71
2018-02-08T17:57:24.982Z,8.72
2018-02-08T17:59:52.501Z,8.72
2018-02-08T18:02:20.019Z,8.73
2018-02-08T18:04:47.528Z,8.74
2018-02-08T18:07:15.026Z,8.74
2018-02-08T18:09:42.540Z,8.75
2018-02-08T18:12:10.043Z,8.76
2018-02-08T18:14:37.540Z,8.77
2018-02-08T18:17:05.055Z,8.78
2018-02-08T18:19:32.581Z,8.78
2018-02-08T18:22:00.135Z,8.78
2018-02-08T18:24:27.648Z,8.79
2018-02-08T18:26:55.139Z,8.79
2018-02-08T18:29:22.675Z,8.80
2018-02-08T18:31:50.226Z,8.80
2018-02-08T18:34:17.712Z,8.81
2018-02-08T18:36:45.227Z,8.81
2018-02-08T18:39:12.732Z,8.81
2018-02-08T18:41:40.272Z,8.81
2018-02-08T18:44:07.792Z,8.81
2018-02-08T18:46:35.302Z,8.82
2018-02-08T18:49:02.801Z,8.82
2018-02-08T18:51:30.351Z,8.82
2018-02-08T18:53:57.815Z,8.82
2018-02-08T18:56:25.291Z,8.82
2018-02-08T18:58:52.771Z,8.81
2018-02-08T19:01:20.251Z,8.81
2018-02-08T19:03:47.724Z,8.81
2018-02-08T19:06:15.487Z,8.80
2018-02-08T19:08:43.020Z,8.78
2018-02-08T19:11:10.551Z,8.78
2018-02-08T19:13:38.071Z,8.78
2018-02-08T19:16:05.551Z,8.77
2018-02-08T19:18:33.063Z,8.76
2018-02-08T19:21:00.573Z,8.76
2018-02-08T19:23:28.092Z,8.77
2018-02-08T19:25:55.595Z,8.77
2018-02-08T19:28:23.525Z,8.78
2018-02-08T19:30:51.019Z,8.78
2018-02-08T19:33:18.512Z,8.77
2018-02-08T19:35:46.016Z,8.77
2018-02-08T19:38:13.489Z,8.76
2018-02-08T19:40:40.970Z,8.77
2018-02-08T19:43:08.452Z,8.76
2018-02-08T19:45:35.930Z,8.75
2018-02-08T19:48:03.414Z,8.75
2018-02-08T19:50:30.906Z,8.75
2018-02-08T19:52:58.398Z,8.74
2018-02-08T19:55:25.900Z,8.73
2018-02-08T19:57:53.460Z,8.73
2018-02-08T20:00:20.973Z,8.72
2018-02-08T20:02:48.472Z,8.72
2018-02-08T20:05:15.970Z,8.73
2018-02-08T20:07:43.476Z,8.73
2018-02-08T20:10:10.960Z,8.73
2018-02-08T20:12:38.451Z,8.73
2018-02-08T20:15:05.939Z,8.73
2018-02-08T20:17:33.426Z,8.72
2018-02-08T20:20:00.939Z,8.72
2018-02-08T20:22:28.433Z,8.72
2018-02-08T20:24:55.943Z,8.70
2018-02-08T20:27:23.476Z,8.70
2018-02-08T20:29:50.980Z,8.69
2018-02-08T20:32:18.478Z,8.68
2018-02-08T20:34:46.000Z,8.67
2018-02-08T20:37:13.548Z,8.66
2018-02-08T20:39:41.125Z,8.65
2018-02-08T20:42:08.612Z,8.65
2018-02-08T20:44:36.153Z,8.64
2018-02-08T20:47:03.642Z,8.64
2018-02-08T20:49:31.174Z,8.63
2018-02-08T20:51:58.667Z,8.63
2018-02-08T20:54:26.196Z,8.63
2018-02-08T20:56:53.713Z,8.62
2018-02-08T20:59:21.246Z,8.62
2018-02-08T21:01:48.764Z,8.61
2018-02-08T21:04:16.260Z,8.61
2018-02-08T21:06:43.754Z,8.61
2018-02-08T21:09:11.379Z,8.61
2018-02-08T21:11:38.888Z,8.61
2018-02-08T21:14:06.496Z,8.60
2018-02-08T21:16:34.026Z,8.61
2018-02-08T21:19:01.523Z,8.60
2018-02-08T21:21:29.042Z,8.59
2018-02-08T21:23:56.534Z,8.59
2018-02-08T21:26:24.018Z,8.58
2018-02-08T21:28:51.519Z,8.58
2018-02-08T21:31:19.002Z,8.58
2018-02-08T21:33:46.504Z,8.57
2018-02-08T21:36:13.995Z,8.57
2018-02-08T21:38:41.484Z,8.56
2018-02-08T21:41:08.987Z,8.57
2018-02-08T21:43:36.562Z,8.57
2018-02-08T21:46:04.050Z,8.57
2018-02-08T21:48:31.549Z,8.57
2018-02-08T21:50:59.063Z,8.57
2018-02-08T21:53:26.570Z,8.57
2018-02-08T21:55:54.226Z,8.57
2018-02-08T21:58:21.702Z,8.58
2018-02-08T22:00:49.203Z,8.57
2018-02-08T22:03:16.697Z,8.57
2018-02-08T22:05:44.187Z,8.57
2018-02-08T22:08:11.682Z,8.57
2018-02-08T22:10:39.175Z,8.57
2018-02-08T22:13:06.680Z,8.56
2018-02-08T22:15:34.171Z,8.56
2018-02-08T22:18:01.656Z,8.57
2018-02-08T22:20:29.151Z,8.58
2018-02-08T22:22:56.623Z,8.58
2018-02-08T22:25:24.126Z,8.60
2018-02-08T22:27:51.618Z,8.61
2018-02-08T22:30:19.135Z,8.63
2018-02-08T22:32:46.625Z,8.65
2018-02-08T22:35:14.152Z,8.67
2018-02-08T22:37:41.657Z,8.67
2018-02-08T22:40:09.155Z,8.64
2018-02-08T22:42:36.668Z,8.60
2018-02-08T22:45:04.178Z,8.56
2018-02-08T22:47:31.689Z,8.55
2018-02-08T22:49:59.197Z,8.53
2018-02-08T22:52:26.699Z,8.52
2018-02-08T22:54:54.179Z,8.50
2018-02-08T22:57:21.667Z,8.48
2018-02-08T22:59:49.245Z,8.48
2018-02-08T23:02:16.730Z,8.46
2018-02-08T23:04:44.211Z,8.46
2018-02-08T23:07:11.718Z,8.44
2018-02-08T23:09:39.202Z,8.42
2018-02-08T23:12:06.687Z,8.41
2018-02-08T23:14:34.166Z,8.38
2018-02-08T23:17:01.665Z,8.35
2018-02-08T23:19:29.175Z,8.35
2018-02-08T23:21:56.675Z,8.33
2018-02-08T23:24:24.154Z,8.32
2018-02-08T23:26:51.671Z,8.32
2018-02-08T23:29:19.175Z,8.31
2018-02-08T23:31:46.660Z,8.31
2018-02-08T23:34:14.182Z,8.30
2018-02-08T23:36:41.672Z,8.29
2018-02-08T23:39:09.148Z,8.29
2018-02-08T23:41:37.119Z,8.28
2018-02-08T23:44:04.608Z,8.26
2018-02-08T23:46:32.116Z,8.25
2018-02-08T23:48:59.612Z,8.24
2018-02-08T23:51:27.103Z,8.22
2018-02-08T23:53:54.608Z,8.21
2018-02-08T23:56:22.105Z,8.21
2018-02-08T23:58:49.596Z,8.19
